sensor_id;sensor_type;location;lat;lon;timestamp;P1;durP1;ratioP1;P2;durP2;ratioP2
77612;SDS011;66777;52.282;5.960;2023-04-15T00:02:00;9.40;;;5.90;;
77612;SDS011;66777;52.282;5.960;2023-04-15T00:04:26;9.63;;;5.70;;
77612;SDS011;66777;52.282;5.960;2023-04-15T00:06:52;9.77;;;5.10;;
77612;SDS011;66777;52.282;5.960;2023-04-15T00:09:19;11.07;;;5.45;;
77612;SDS011;66777;52.282;5.960;2023-04-15T00:11:45;11.30;;;6.43;;
77612;SDS011;66777;52.282;5.960;2023-04-15T00:14:11;14.93;;;6.78;;
77612;SDS011;66777;52.282;5.960;2023-04-15T00:16:37;9.25;;;5.30;;
77612;SDS011;66777;52.282;5.960;2023-04-15T00:19:03;9.88;;;6.18;;
77612;SDS011;66777;52.282;5.960;2023-04-15T00:21:28;8.75;;;5.68;;
77612;SDS011;66777;52.282;5.960;2023-04-15T00:23:54;9.82;;;5.63;;
77612;SDS011;66777;52.282;5.960;2023-04-15T00:26:20;9.13;;;5.65;;
77612;SDS011;66777;52.282;5.960;2023-04-15T00:28:46;8.85;;;5.90;;
77612;SDS011;66777;52.282;5.960;2023-04-15T00:31:11;7.53;;;5.05;;
77612;SDS011;66777;52.282;5.960;2023-04-15T00:33:38;11.93;;;5.72;;
77612;SDS011;66777;52.282;5.960;2023-04-15T00:36:05;8.68;;;6.25;;
77612;SDS011;66777;52.282;5.960;2023-04-15T00:38:30;9.23;;;5.70;;
77612;SDS011;66777;52.282;5.960;2023-04-15T00:40:56;11.02;;;5.78;;
77612;SDS011;66777;52.282;5.960;2023-04-15T00:43:22;10.38;;;4.95;;
77612;SDS011;66777;52.282;5.960;2023-04-15T00:45:50;10.30;;;5.70;;
77612;SDS011;66777;52.282;5.960;2023-04-15T00:48:17;12.23;;;5.45;;
77612;SDS011;66777;52.282;5.960;2023-04-15T00:50:44;9.80;;;6.00;;
77612;SDS011;66777;52.282;5.960;2023-04-15T00:53:09;8.13;;;5.32;;
77612;SDS011;66777;52.282;5.960;2023-04-15T00:55:35;10.38;;;6.03;;
77612;SDS011;66777;52.282;5.960;2023-04-15T00:58:01;12.40;;;6.28;;
77612;SDS011;66777;52.282;5.960;2023-04-15T01:00:27;10.73;;;5.70;;
77612;SDS011;66777;52.282;5.960;2023-04-15T01:02:54;8.43;;;5.45;;
77612;SDS011;66777;52.282;5.960;2023-04-15T01:05:20;10.63;;;5.63;;
77612;SDS011;66777;52.282;5.960;2023-04-15T01:07:46;8.27;;;6.05;;
77612;SDS011;66777;52.282;5.960;2023-04-15T01:10:13;10.82;;;6.22;;
77612;SDS011;66777;52.282;5.960;2023-04-15T01:12:38;16.10;;;6.32;;
77612;SDS011;66777;52.282;5.960;2023-04-15T01:15:04;11.10;;;6.05;;
77612;SDS011;66777;52.282;5.960;2023-04-15T01:17:32;10.43;;;5.88;;
77612;SDS011;66777;52.282;5.960;2023-04-15T01:19:57;8.13;;;6.00;;
77612;SDS011;66777;52.282;5.960;2023-04-15T01:22:23;10.40;;;5.60;;
77612;SDS011;66777;52.282;5.960;2023-04-15T01:24:54;11.65;;;5.95;;
77612;SDS011;66777;52.282;5.960;2023-04-15T01:27:26;12.52;;;6.00;;
77612;SDS011;66777;52.282;5.960;2023-04-15T01:29:51;11.63;;;6.07;;
77612;SDS011;66777;52.282;5.960;2023-04-15T01:32:17;10.48;;;5.93;;
77612;SDS011;66777;52.282;5.960;2023-04-15T01:34:43;10.30;;;5.75;;
77612;SDS011;66777;52.282;5.960;2023-04-15T01:37:09;11.52;;;5.88;;
77612;SDS011;66777;52.282;5.960;2023-04-15T01:39:35;11.38;;;6.10;;
77612;SDS011;66777;52.282;5.960;2023-04-15T01:42:01;13.68;;;5.80;;
77612;SDS011;66777;52.282;5.960;2023-04-15T01:44:27;12.98;;;6.18;;
77612;SDS011;66777;52.282;5.960;2023-04-15T01:46:52;11.13;;;6.20;;
77612;SDS011;66777;52.282;5.960;2023-04-15T01:49:18;11.20;;;6.65;;
77612;SDS011;66777;52.282;5.960;2023-04-15T01:51:44;14.13;;;7.05;;
77612;SDS011;66777;52.282;5.960;2023-04-15T01:54:09;13.02;;;6.70;;
77612;SDS011;66777;52.282;5.960;2023-04-15T01:56:35;14.10;;;6.63;;
77612;SDS011;66777;52.282;5.960;2023-04-15T01:59:01;9.93;;;6.80;;
77612;SDS011;66777;52.282;5.960;2023-04-15T02:01:27;12.55;;;6.72;;
77612;SDS011;66777;52.282;5.960;2023-04-15T02:03:53;10.27;;;6.60;;
77612;SDS011;66777;52.282;5.960;2023-04-15T02:06:18;11.90;;;6.03;;
77612;SDS011;66777;52.282;5.960;2023-04-15T02:08:45;10.77;;;6.40;;
77612;SDS011;66777;52.282;5.960;2023-04-15T02:11:10;11.05;;;6.32;;
77612;SDS011;66777;52.282;5.960;2023-04-15T02:13:36;10.93;;;6.15;;
77612;SDS011;66777;52.282;5.960;2023-04-15T02:16:02;10.07;;;6.35;;
77612;SDS011;66777;52.282;5.960;2023-04-15T02:18:27;15.45;;;6.13;;
77612;SDS011;66777;52.282;5.960;2023-04-15T02:20:53;10.77;;;6.32;;
77612;SDS011;66777;52.282;5.960;2023-04-15T02:23:20;12.32;;;6.07;;
77612;SDS011;66777;52.282;5.960;2023-04-15T02:25:46;11.50;;;6.25;;
77612;SDS011;66777;52.282;5.960;2023-04-15T02:28:11;12.13;;;6.30;;
77612;SDS011;66777;52.282;5.960;2023-04-15T02:30:37;9.98;;;6.20;;
77612;SDS011;66777;52.282;5.960;2023-04-15T02:33:04;15.23;;;6.05;;
77612;SDS011;66777;52.282;5.960;2023-04-15T02:35:31;12.43;;;5.63;;
77612;SDS011;66777;52.282;5.960;2023-04-15T02:37:57;12.77;;;6.07;;
77612;SDS011;66777;52.282;5.960;2023-04-15T02:40:22;10.27;;;6.15;;
77612;SDS011;66777;52.282;5.960;2023-04-15T02:42:48;12.23;;;6.57;;
77612;SDS011;66777;52.282;5.960;2023-04-15T02:45:13;12.80;;;6.20;;
77612;SDS011;66777;52.282;5.960;2023-04-15T02:47:39;10.45;;;4.93;;
77612;SDS011;66777;52.282;5.960;2023-04-15T02:50:09;13.23;;;6.38;;
77612;SDS011;66777;52.282;5.960;2023-04-15T02:52:38;10.82;;;5.78;;
77612;SDS011;66777;52.282;5.960;2023-04-15T02:55:04;9.98;;;5.30;;
77612;SDS011;66777;52.282;5.960;2023-04-15T02:57:30;10.45;;;5.30;;
77612;SDS011;66777;52.282;5.960;2023-04-15T02:59:55;13.90;;;5.85;;
77612;SDS011;66777;52.282;5.960;2023-04-15T03:02:21;12.20;;;6.47;;
77612;SDS011;66777;52.282;5.960;2023-04-15T03:04:47;10.88;;;6.20;;
77612;SDS011;66777;52.282;5.960;2023-04-15T03:07:13;11.32;;;5.95;;
77612;SDS011;66777;52.282;5.960;2023-04-15T03:09:38;13.98;;;5.72;;
77612;SDS011;66777;52.282;5.960;2023-04-15T03:12:05;14.00;;;6.07;;
77612;SDS011;66777;52.282;5.960;2023-04-15T03:14:30;10.50;;;5.70;;
77612;SDS011;66777;52.282;5.960;2023-04-15T03:16:56;11.45;;;6.35;;
77612;SDS011;66777;52.282;5.960;2023-04-15T03:19:23;12.27;;;5.97;;
77612;SDS011;66777;52.282;5.960;2023-04-15T03:21:49;12.43;;;5.95;;
77612;SDS011;66777;52.282;5.960;2023-04-15T03:24:16;12.07;;;6.20;;
77612;SDS011;66777;52.282;5.960;2023-04-15T03:26:41;10.40;;;6.03;;
77612;SDS011;66777;52.282;5.960;2023-04-15T03:29:07;10.27;;;6.13;;
77612;SDS011;66777;52.282;5.960;2023-04-15T03:31:33;11.57;;;6.07;;
77612;SDS011;66777;52.282;5.960;2023-04-15T03:33:58;12.52;;;6.55;;
77612;SDS011;66777;52.282;5.960;2023-04-15T03:36:24;12.40;;;6.38;;
77612;SDS011;66777;52.282;5.960;2023-04-15T03:38:51;10.68;;;6.15;;
77612;SDS011;66777;52.282;5.960;2023-04-15T03:41:16;15.13;;;6.28;;
77612;SDS011;66777;52.282;5.960;2023-04-15T03:43:42;11.77;;;6.50;;
77612;SDS011;66777;52.282;5.960;2023-04-15T03:46:08;10.52;;;5.68;;
77612;SDS011;66777;52.282;5.960;2023-04-15T03:48:33;12.02;;;5.72;;
77612;SDS011;66777;52.282;5.960;2023-04-15T03:50:59;11.82;;;6.93;;
77612;SDS011;66777;52.282;5.960;2023-04-15T03:53:24;12.25;;;6.10;;
77612;SDS011;66777;52.282;5.960;2023-04-15T03:55:50;11.73;;;5.95;;
77612;SDS011;66777;52.282;5.960;2023-04-15T03:58:16;11.63;;;6.22;;
77612;SDS011;66777;52.282;5.960;2023-04-15T04:00:41;11.50;;;6.10;;
77612;SDS011;66777;52.282;5.960;2023-04-15T04:03:07;13.23;;;6.97;;
77612;SDS011;66777;52.282;5.960;2023-04-15T04:05:33;12.18;;;5.88;;
77612;SDS011;66777;52.282;5.960;2023-04-15T04:08:02;11.95;;;5.95;;
77612;SDS011;66777;52.282;5.960;2023-04-15T04:10:27;10.25;;;6.25;;
77612;SDS011;66777;52.282;5.960;2023-04-15T04:12:53;11.15;;;6.20;;
77612;SDS011;66777;52.282;5.960;2023-04-15T04:15:18;10.52;;;5.55;;
77612;SDS011;66777;52.282;5.960;2023-04-15T04:17:44;10.70;;;5.65;;
77612;SDS011;66777;52.282;5.960;2023-04-15T04:20:10;14.00;;;7.40;;
77612;SDS011;66777;52.282;5.960;2023-04-15T04:22:37;13.38;;;7.00;;
77612;SDS011;66777;52.282;5.960;2023-04-15T04:25:03;12.77;;;6.93;;
77612;SDS011;66777;52.282;5.960;2023-04-15T04:27:29;14.20;;;6.50;;
77612;SDS011;66777;52.282;5.960;2023-04-15T04:29:55;14.13;;;6.72;;
77612;SDS011;66777;52.282;5.960;2023-04-15T04:32:20;13.70;;;7.40;;
77612;SDS011;66777;52.282;5.960;2023-04-15T04:34:46;12.90;;;7.13;;
77612;SDS011;66777;52.282;5.960;2023-04-15T04:37:12;11.77;;;7.35;;
77612;SDS011;66777;52.282;5.960;2023-04-15T04:39:38;13.85;;;5.75;;
77612;SDS011;66777;52.282;5.960;2023-04-15T04:42:04;14.45;;;7.63;;
77612;SDS011;66777;52.282;5.960;2023-04-15T04:44:29;13.52;;;7.50;;
77612;SDS011;66777;52.282;5.960;2023-04-15T04:46:55;14.93;;;6.55;;
77612;SDS011;66777;52.282;5.960;2023-04-15T04:49:21;14.88;;;6.82;;
77612;SDS011;66777;52.282;5.960;2023-04-15T04:51:46;13.75;;;7.40;;
77612;SDS011;66777;52.282;5.960;2023-04-15T04:54:12;14.95;;;7.40;;
77612;SDS011;66777;52.282;5.960;2023-04-15T04:56:38;16.27;;;7.60;;
77612;SDS011;66777;52.282;5.960;2023-04-15T04:59:04;12.20;;;6.65;;
77612;SDS011;66777;52.282;5.960;2023-04-15T05:01:29;14.25;;;7.63;;
77612;SDS011;66777;52.282;5.960;2023-04-15T05:03:55;14.05;;;7.07;;
77612;SDS011;66777;52.282;5.960;2023-04-15T05:06:20;15.55;;;7.40;;
77612;SDS011;66777;52.282;5.960;2023-04-15T05:08:46;12.50;;;7.30;;
77612;SDS011;66777;52.282;5.960;2023-04-15T05:11:12;15.27;;;7.65;;
77612;SDS011;66777;52.282;5.960;2023-04-15T05:13:38;14.63;;;8.02;;
77612;SDS011;66777;52.282;5.960;2023-04-15T05:16:04;12.85;;;7.05;;
77612;SDS011;66777;52.282;5.960;2023-04-15T05:18:30;17.55;;;7.00;;
77612;SDS011;66777;52.282;5.960;2023-04-15T05:20:56;16.92;;;7.72;;
77612;SDS011;66777;52.282;5.960;2023-04-15T05:23:22;14.88;;;7.88;;
77612;SDS011;66777;52.282;5.960;2023-04-15T05:25:47;13.98;;;7.28;;
77612;SDS011;66777;52.282;5.960;2023-04-15T05:28:13;15.35;;;8.35;;
77612;SDS011;66777;52.282;5.960;2023-04-15T05:30:38;19.08;;;8.32;;
77612;SDS011;66777;52.282;5.960;2023-04-15T05:33:04;15.50;;;8.02;;
77612;SDS011;66777;52.282;5.960;2023-04-15T05:35:30;14.25;;;7.75;;
77612;SDS011;66777;52.282;5.960;2023-04-15T05:37:55;19.30;;;8.60;;
77612;SDS011;66777;52.282;5.960;2023-04-15T05:40:21;17.35;;;8.52;;
77612;SDS011;66777;52.282;5.960;2023-04-15T05:42:46;14.85;;;7.85;;
77612;SDS011;66777;52.282;5.960;2023-04-15T05:47:51;15.40;;;9.10;;
77612;SDS011;66777;52.282;5.960;2023-04-15T05:50:18;18.15;;;9.48;;
77612;SDS011;66777;52.282;5.960;2023-04-15T05:52:44;17.63;;;9.13;;
77612;SDS011;66777;52.282;5.960;2023-04-15T05:55:10;16.42;;;9.18;;
77612;SDS011;66777;52.282;5.960;2023-04-15T05:57:36;17.67;;;9.25;;
77612;SDS011;66777;52.282;5.960;2023-04-15T06:00:02;16.55;;;9.15;;
77612;SDS011;66777;52.282;5.960;2023-04-15T06:02:29;15.70;;;9.20;;
77612;SDS011;66777;52.282;5.960;2023-04-15T06:04:55;15.15;;;9.18;;
77612;SDS011;66777;52.282;5.960;2023-04-15T06:07:21;16.98;;;9.18;;
77612;SDS011;66777;52.282;5.960;2023-04-15T06:09:47;16.75;;;9.32;;
77612;SDS011;66777;52.282;5.960;2023-04-15T06:12:13;18.88;;;9.88;;
77612;SDS011;66777;52.282;5.960;2023-04-15T06:14:39;15.20;;;8.98;;
77612;SDS011;66777;52.282;5.960;2023-04-15T06:17:05;16.85;;;9.38;;
77612;SDS011;66777;52.282;5.960;2023-04-15T06:19:31;15.27;;;9.15;;
77612;SDS011;66777;52.282;5.960;2023-04-15T06:21:57;18.17;;;9.95;;
77612;SDS011;66777;52.282;5.960;2023-04-15T06:24:23;17.58;;;10.18;;
77612;SDS011;66777;52.282;5.960;2023-04-15T06:26:49;15.90;;;9.85;;
77612;SDS011;66777;52.282;5.960;2023-04-15T06:29:15;17.63;;;9.20;;
77612;SDS011;66777;52.282;5.960;2023-04-15T06:31:40;14.80;;;9.25;;
77612;SDS011;66777;52.282;5.960;2023-04-15T06:34:06;16.73;;;9.48;;
77612;SDS011;66777;52.282;5.960;2023-04-15T06:36:31;22.08;;;10.48;;
77612;SDS011;66777;52.282;5.960;2023-04-15T06:38:57;16.80;;;10.90;;
77612;SDS011;66777;52.282;5.960;2023-04-15T06:41:23;16.77;;;10.68;;
77612;SDS011;66777;52.282;5.960;2023-04-15T06:43:48;20.77;;;11.88;;
77612;SDS011;66777;52.282;5.960;2023-04-15T06:46:14;19.70;;;10.43;;
77612;SDS011;66777;52.282;5.960;2023-04-15T06:48:40;17.95;;;11.02;;
77612;SDS011;66777;52.282;5.960;2023-04-15T06:51:06;18.25;;;11.05;;
77612;SDS011;66777;52.282;5.960;2023-04-15T06:53:32;18.77;;;10.45;;
77612;SDS011;66777;52.282;5.960;2023-04-15T06:55:57;18.13;;;9.77;;
77612;SDS011;66777;52.282;5.960;2023-04-15T06:58:23;16.17;;;9.88;;
77612;SDS011;66777;52.282;5.960;2023-04-15T07:00:49;16.52;;;10.40;;
77612;SDS011;66777;52.282;5.960;2023-04-15T07:03:15;19.77;;;9.80;;
77612;SDS011;66777;52.282;5.960;2023-04-15T07:05:40;16.42;;;9.57;;
77612;SDS011;66777;52.282;5.960;2023-04-15T07:08:06;16.33;;;10.55;;
77612;SDS011;66777;52.282;5.960;2023-04-15T07:10:32;17.75;;;11.05;;
77612;SDS011;66777;52.282;5.960;2023-04-15T07:12:58;16.00;;;10.15;;
77612;SDS011;66777;52.282;5.960;2023-04-15T07:15:24;14.18;;;8.38;;
77612;SDS011;66777;52.282;5.960;2023-04-15T07:17:49;14.80;;;8.82;;
77612;SDS011;66777;52.282;5.960;2023-04-15T07:20:15;12.63;;;9.73;;
77612;SDS011;66777;52.282;5.960;2023-04-15T07:22:40;14.45;;;8.57;;
77612;SDS011;66777;52.282;5.960;2023-04-15T07:25:06;13.73;;;9.90;;
77612;SDS011;66777;52.282;5.960;2023-04-15T07:27:32;15.95;;;9.13;;
77612;SDS011;66777;52.282;5.960;2023-04-15T07:29:58;14.13;;;9.55;;
77612;SDS011;66777;52.282;5.960;2023-04-15T07:32:24;13.10;;;9.65;;
77612;SDS011;66777;52.282;5.960;2023-04-15T07:34:49;13.93;;;9.45;;
77612;SDS011;66777;52.282;5.960;2023-04-15T07:37:15;12.88;;;8.15;;
77612;SDS011;66777;52.282;5.960;2023-04-15T07:39:41;15.57;;;9.57;;
77612;SDS011;66777;52.282;5.960;2023-04-15T07:42:07;11.13;;;9.15;;
77612;SDS011;66777;52.282;5.960;2023-04-15T07:44:33;14.55;;;8.63;;
77612;SDS011;66777;52.282;5.960;2023-04-15T07:46:59;13.88;;;11.07;;
77612;SDS011;66777;52.282;5.960;2023-04-15T07:49:26;11.30;;;10.10;;
77612;SDS011;66777;52.282;5.960;2023-04-15T07:51:51;11.40;;;8.88;;
77612;SDS011;66777;52.282;5.960;2023-04-15T07:54:17;10.60;;;8.77;;
77612;SDS011;66777;52.282;5.960;2023-04-15T07:56:43;12.02;;;9.82;;
77612;SDS011;66777;52.282;5.960;2023-04-15T07:59:08;11.50;;;8.93;;
77612;SDS011;66777;52.282;5.960;2023-04-15T08:01:34;11.57;;;8.65;;
77612;SDS011;66777;52.282;5.960;2023-04-15T08:04:00;9.40;;;8.07;;
77612;SDS011;66777;52.282;5.960;2023-04-15T08:06:27;9.07;;;8.23;;
77612;SDS011;66777;52.282;5.960;2023-04-15T08:08:52;10.48;;;9.05;;
77612;SDS011;66777;52.282;5.960;2023-04-15T08:11:19;9.57;;;8.40;;
77612;SDS011;66777;52.282;5.960;2023-04-15T08:13:45;9.32;;;8.43;;
77612;SDS011;66777;52.282;5.960;2023-04-15T08:16:18;9.02;;;8.23;;
77612;SDS011;66777;52.282;5.960;2023-04-15T08:18:46;8.02;;;7.22;;
77612;SDS011;66777;52.282;5.960;2023-04-15T08:21:13;10.57;;;9.63;;
77612;SDS011;66777;52.282;5.960;2023-04-15T08:23:40;10.82;;;9.82;;
77612;SDS011;66777;52.282;5.960;2023-04-15T08:26:07;10.02;;;9.13;;
77612;SDS011;66777;52.282;5.960;2023-04-15T08:28:33;9.77;;;8.90;;
77612;SDS011;66777;52.282;5.960;2023-04-15T08:30:59;10.73;;;9.73;;
77612;SDS011;66777;52.282;5.960;2023-04-15T08:33:26;11.35;;;10.35;;
77612;SDS011;66777;52.282;5.960;2023-04-15T08:35:52;11.18;;;10.00;;
77612;SDS011;66777;52.282;5.960;2023-04-15T08:38:18;10.95;;;9.95;;
77612;SDS011;66777;52.282;5.960;2023-04-15T08:40:44;11.80;;;10.60;;
77612;SDS011;66777;52.282;5.960;2023-04-15T08:43:11;11.75;;;10.70;;
77612;SDS011;66777;52.282;5.960;2023-04-15T08:45:42;12.43;;;11.32;;
77612;SDS011;66777;52.282;5.960;2023-04-15T08:48:10;10.93;;;9.55;;
77612;SDS011;66777;52.282;5.960;2023-04-15T08:50:40;12.30;;;11.20;;
77612;SDS011;66777;52.282;5.960;2023-04-15T08:53:06;11.30;;;10.30;;
77612;SDS011;66777;52.282;5.960;2023-04-15T08:55:33;12.68;;;11.57;;
77612;SDS011;66777;52.282;5.960;2023-04-15T08:58:03;11.88;;;10.77;;
77612;SDS011;66777;52.282;5.960;2023-04-15T09:00:30;14.05;;;12.80;;
77612;SDS011;66777;52.282;5.960;2023-04-15T09:02:57;12.65;;;11.45;;
77612;SDS011;66777;52.282;5.960;2023-04-15T09:05:23;13.02;;;11.98;;
77612;SDS011;66777;52.282;5.960;2023-04-15T09:07:49;13.20;;;12.10;;
77612;SDS011;66777;52.282;5.960;2023-04-15T09:10:15;14.88;;;13.70;;
77612;SDS011;66777;52.282;5.960;2023-04-15T09:12:41;14.48;;;13.27;;
77612;SDS011;66777;52.282;5.960;2023-04-15T09:15:08;14.68;;;13.45;;
77612;SDS011;66777;52.282;5.960;2023-04-15T09:17:41;13.50;;;12.40;;
77612;SDS011;66777;52.282;5.960;2023-04-15T09:20:14;14.75;;;13.65;;
77612;SDS011;66777;52.282;5.960;2023-04-15T09:22:43;14.68;;;13.68;;
77612;SDS011;66777;52.282;5.960;2023-04-15T09:27:55;13.07;;;12.07;;
77612;SDS011;66777;52.282;5.960;2023-04-15T09:30:22;15.35;;;14.32;;
77612;SDS011;66777;52.282;5.960;2023-04-15T09:32:53;13.45;;;12.52;;
77612;SDS011;66777;52.282;5.960;2023-04-15T09:35:21;15.55;;;14.45;;
77612;SDS011;66777;52.282;5.960;2023-04-15T09:37:51;15.50;;;14.50;;
77612;SDS011;66777;52.282;5.960;2023-04-15T09:40:38;14.02;;;12.93;;
77612;SDS011;66777;52.282;5.960;2023-04-15T09:45:32;15.85;;;14.63;;
77612;SDS011;66777;52.282;5.960;2023-04-15T09:48:13;14.35;;;13.23;;
77612;SDS011;66777;52.282;5.960;2023-04-15T09:50:40;15.73;;;14.60;;
77612;SDS011;66777;52.282;5.960;2023-04-15T09:53:10;15.10;;;14.07;;
77612;SDS011;66777;52.282;5.960;2023-04-15T09:55:36;16.10;;;14.95;;
77612;SDS011;66777;52.282;5.960;2023-04-15T09:58:07;17.80;;;16.60;;
77612;SDS011;66777;52.282;5.960;2023-04-15T10:00:33;21.13;;;19.88;;
77612;SDS011;66777;52.282;5.960;2023-04-15T10:03:00;14.93;;;13.75;;
77612;SDS011;66777;52.282;5.960;2023-04-15T10:05:26;19.65;;;18.40;;
77612;SDS011;66777;52.282;5.960;2023-04-15T10:07:53;18.15;;;16.92;;
77612;SDS011;66777;52.282;5.960;2023-04-15T10:10:19;18.38;;;17.23;;
77612;SDS011;66777;52.282;5.960;2023-04-15T10:12:45;16.85;;;15.55;;
77612;SDS011;66777;52.282;5.960;2023-04-15T10:15:13;16.85;;;15.70;;
77612;SDS011;66777;52.282;5.960;2023-04-15T10:17:42;17.48;;;16.45;;
77612;SDS011;66777;52.282;5.960;2023-04-15T10:20:09;15.02;;;14.02;;
77612;SDS011;66777;52.282;5.960;2023-04-15T10:22:36;13.85;;;12.93;;
77612;SDS011;66777;52.282;5.960;2023-04-15T10:25:02;15.38;;;14.38;;
77612;SDS011;66777;52.282;5.960;2023-04-15T10:27:28;20.55;;;19.45;;
77612;SDS011;66777;52.282;5.960;2023-04-15T10:29:54;16.13;;;15.02;;
77612;SDS011;66777;52.282;5.960;2023-04-15T10:32:21;20.83;;;19.73;;
77612;SDS011;66777;52.282;5.960;2023-04-15T10:34:49;21.27;;;19.90;;
77612;SDS011;66777;52.282;5.960;2023-04-15T10:37:31;24.48;;;23.15;;
77612;SDS011;66777;52.282;5.960;2023-04-15T10:39:58;31.38;;;29.92;;
77612;SDS011;66777;52.282;5.960;2023-04-15T10:42:24;30.83;;;29.38;;
77612;SDS011;66777;52.282;5.960;2023-04-15T10:44:58;24.42;;;23.20;;
77612;SDS011;66777;52.282;5.960;2023-04-15T10:47:24;29.88;;;28.45;;
77612;SDS011;66777;52.282;5.960;2023-04-15T10:50:00;30.60;;;29.08;;
77612;SDS011;66777;52.282;5.960;2023-04-15T10:52:27;30.80;;;29.20;;
77612;SDS011;66777;52.282;5.960;2023-04-15T10:57:38;31.48;;;30.00;;
77612;SDS011;66777;52.282;5.960;2023-04-15T11:00:09;40.00;;;38.35;;
77612;SDS011;66777;52.282;5.960;2023-04-15T11:02:47;33.28;;;31.80;;
77612;SDS011;66777;52.282;5.960;2023-04-15T11:05:22;35.58;;;33.97;;
77612;SDS011;66777;52.282;5.960;2023-04-15T11:08:08;28.83;;;26.55;;
77612;SDS011;66777;52.282;5.960;2023-04-15T11:13:04;35.13;;;33.50;;
77612;SDS011;66777;52.282;5.960;2023-04-15T11:15:40;35.30;;;33.78;;
77612;SDS011;66777;52.282;5.960;2023-04-15T11:18:19;35.13;;;33.47;;
77612;SDS011;66777;52.282;5.960;2023-04-15T11:20:48;41.22;;;39.45;;
77612;SDS011;66777;52.282;5.960;2023-04-15T11:23:15;40.17;;;38.53;;
77612;SDS011;66777;52.282;5.960;2023-04-15T11:26:15;49.50;;;47.55;;
77612;SDS011;66777;52.282;5.960;2023-04-15T11:28:44;39.97;;;38.35;;
77612;SDS011;66777;52.282;5.960;2023-04-15T11:31:14;39.38;;;37.67;;
77612;SDS011;66777;52.282;5.960;2023-04-15T11:33:45;35.65;;;34.13;;
77612;SDS011;66777;52.282;5.960;2023-04-15T11:36:17;36.42;;;34.78;;
77612;SDS011;66777;52.282;5.960;2023-04-15T11:38:43;39.28;;;37.55;;
77612;SDS011;66777;52.282;5.960;2023-04-15T11:41:11;33.50;;;31.98;;
77612;SDS011;66777;52.282;5.960;2023-04-15T11:43:37;37.90;;;36.20;;
77612;SDS011;66777;52.282;5.960;2023-04-15T11:46:03;31.52;;;30.13;;
77612;SDS011;66777;52.282;5.960;2023-04-15T11:51:05;36.97;;;35.40;;
77612;SDS011;66777;52.282;5.960;2023-04-15T11:56:08;32.17;;;30.77;;
77612;SDS011;66777;52.282;5.960;2023-04-15T11:58:36;33.38;;;31.90;;
77612;SDS011;66777;52.282;5.960;2023-04-15T12:01:02;33.22;;;31.58;;
77612;SDS011;66777;52.282;5.960;2023-04-15T12:03:29;29.35;;;27.90;;
77612;SDS011;66777;52.282;5.960;2023-04-15T12:06:07;28.67;;;27.33;;
77612;SDS011;66777;52.282;5.960;2023-04-15T12:11:47;27.55;;;26.27;;
77612;SDS011;66777;52.282;5.960;2023-04-15T12:16:43;32.97;;;31.48;;
77612;SDS011;66777;52.282;5.960;2023-04-15T12:19:11;30.85;;;29.52;;
77612;SDS011;66777;52.282;5.960;2023-04-15T12:21:39;36.67;;;35.15;;
77612;SDS011;66777;52.282;5.960;2023-04-15T12:24:09;27.85;;;26.45;;
77612;SDS011;66777;52.282;5.960;2023-04-15T12:26:46;27.92;;;26.65;;
77612;SDS011;66777;52.282;5.960;2023-04-15T12:29:15;26.50;;;25.23;;
77612;SDS011;66777;52.282;5.960;2023-04-15T12:34:37;23.92;;;22.65;;
77612;SDS011;66777;52.282;5.960;2023-04-15T12:37:13;28.60;;;27.33;;
77612;SDS011;66777;52.282;5.960;2023-04-15T12:39:43;26.73;;;25.48;;
77612;SDS011;66777;52.282;5.960;2023-04-15T12:42:16;25.55;;;24.33;;
77612;SDS011;66777;52.282;5.960;2023-04-15T12:44:41;23.02;;;21.90;;
77612;SDS011;66777;52.282;5.960;2023-04-15T12:47:08;26.02;;;24.80;;
77612;SDS011;66777;52.282;5.960;2023-04-15T12:49:34;23.65;;;22.55;;
77612;SDS011;66777;52.282;5.960;2023-04-15T12:52:01;22.38;;;21.27;;
77612;SDS011;66777;52.282;5.960;2023-04-15T12:54:28;19.70;;;18.67;;
77612;SDS011;66777;52.282;5.960;2023-04-15T12:56:55;19.35;;;18.35;;
77612;SDS011;66777;52.282;5.960;2023-04-15T12:59:21;19.45;;;18.52;;
77612;SDS011;66777;52.282;5.960;2023-04-15T13:01:48;18.80;;;17.88;;
77612;SDS011;66777;52.282;5.960;2023-04-15T13:04:14;17.48;;;16.58;;
77612;SDS011;66777;52.282;5.960;2023-04-15T13:06:40;16.13;;;15.13;;
77612;SDS011;66777;52.282;5.960;2023-04-15T13:09:07;16.65;;;15.68;;
77612;SDS011;66777;52.282;5.960;2023-04-15T13:11:32;15.45;;;14.55;;
77612;SDS011;66777;52.282;5.960;2023-04-15T13:14:02;15.05;;;14.00;;
77612;SDS011;66777;52.282;5.960;2023-04-15T13:16:29;13.25;;;12.02;;
77612;SDS011;66777;52.282;5.960;2023-04-15T13:18:57;13.25;;;12.38;;
77612;SDS011;66777;52.282;5.960;2023-04-15T13:21:23;14.10;;;13.20;;
77612;SDS011;66777;52.282;5.960;2023-04-15T13:23:49;15.07;;;14.05;;
77612;SDS011;66777;52.282;5.960;2023-04-15T13:26:16;13.75;;;12.68;;
77612;SDS011;66777;52.282;5.960;2023-04-15T13:28:41;10.57;;;9.85;;
77612;SDS011;66777;52.282;5.960;2023-04-15T13:31:07;9.68;;;8.90;;
77612;SDS011;66777;52.282;5.960;2023-04-15T13:33:32;10.27;;;9.55;;
77612;SDS011;66777;52.282;5.960;2023-04-15T13:35:58;12.23;;;11.43;;
77612;SDS011;66777;52.282;5.960;2023-04-15T13:38:24;11.30;;;10.50;;
77612;SDS011;66777;52.282;5.960;2023-04-15T13:40:50;11.43;;;10.52;;
77612;SDS011;66777;52.282;5.960;2023-04-15T13:43:15;10.77;;;9.90;;
77612;SDS011;66777;52.282;5.960;2023-04-15T13:45:41;9.00;;;8.27;;
77612;SDS011;66777;52.282;5.960;2023-04-15T13:48:07;9.32;;;8.43;;
77612;SDS011;66777;52.282;5.960;2023-04-15T13:50:36;10.40;;;9.63;;
77612;SDS011;66777;52.282;5.960;2023-04-15T13:53:01;10.70;;;9.93;;
77612;SDS011;66777;52.282;5.960;2023-04-15T13:55:27;8.90;;;8.27;;
77612;SDS011;66777;52.282;5.960;2023-04-15T13:57:53;11.43;;;10.52;;
77612;SDS011;66777;52.282;5.960;2023-04-15T14:00:19;9.43;;;8.63;;
77612;SDS011;66777;52.282;5.960;2023-04-15T14:02:45;8.93;;;8.18;;
77612;SDS011;66777;52.282;5.960;2023-04-15T14:05:10;10.75;;;9.85;;
77612;SDS011;66777;52.282;5.960;2023-04-15T14:07:36;8.88;;;8.18;;
77612;SDS011;66777;52.282;5.960;2023-04-15T14:10:02;9.20;;;8.35;;
77612;SDS011;66777;52.282;5.960;2023-04-15T14:12:28;9.73;;;9.00;;
77612;SDS011;66777;52.282;5.960;2023-04-15T14:14:53;9.45;;;8.63;;
77612;SDS011;66777;52.282;5.960;2023-04-15T14:17:19;10.50;;;9.75;;
77612;SDS011;66777;52.282;5.960;2023-04-15T14:19:45;8.98;;;8.07;;
77612;SDS011;66777;52.282;5.960;2023-04-15T14:22:20;7.65;;;6.82;;
77612;SDS011;66777;52.282;5.960;2023-04-15T14:24:46;7.30;;;6.60;;
77612;SDS011;66777;52.282;5.960;2023-04-15T14:27:13;8.57;;;7.20;;
77612;SDS011;66777;52.282;5.960;2023-04-15T14:29:39;7.95;;;6.63;;
77612;SDS011;66777;52.282;5.960;2023-04-15T14:32:05;8.60;;;6.65;;
77612;SDS011;66777;52.282;5.960;2023-04-15T14:34:31;14.02;;;13.15;;
77612;SDS011;66777;52.282;5.960;2023-04-15T14:36:56;7.32;;;6.57;;
77612;SDS011;66777;52.282;5.960;2023-04-15T14:39:22;8.63;;;6.53;;
77612;SDS011;66777;52.282;5.960;2023-04-15T14:41:48;8.10;;;6.18;;
77612;SDS011;66777;52.282;5.960;2023-04-15T14:44:14;10.30;;;7.00;;
77612;SDS011;66777;52.282;5.960;2023-04-15T14:46:39;10.45;;;7.40;;
77612;SDS011;66777;52.282;5.960;2023-04-15T14:49:05;7.68;;;6.88;;
77612;SDS011;66777;52.282;5.960;2023-04-15T14:51:32;9.60;;;8.52;;
77612;SDS011;66777;52.282;5.960;2023-04-15T14:53:58;10.32;;;8.07;;
77612;SDS011;66777;52.282;5.960;2023-04-15T14:56:23;7.72;;;7.03;;